W K Kellogg Airport
KBTL : rendu visible

Aérodrome :











RETROUVEZ-NOUS SUR...

 
LOGIN :

S'inscrire | Disclaimer

   EN    FR    IT 

 









Légende :    VFR   VFR Marginal   IFR   IFR Intensif   IFR Très Intensif
Visi : 
Plafond : 
>= 8 km
>= 3000ft
5 à 8 km
1000 à 3000 ft
1500m à 5 km
500 à 1000 ft
800 à 1500m
200 à 500 ft
< 800m
< 200 ft
Symboles :   Orages  Brouillard  Fortes neiges  Fortes précipitations  Vent > 20 kt






- Altitude de l'aérodrome : 952 ft


KBTL - W K Kellogg

DERNIER METAR :
  • 162353Z 10004KT 10SM CLR 00/M06 A3033 RMK AO2 SLP283 T00001056 10028 20000 55000

METARs EXPIRÉS :
  • 162253Z 09003KT 10SM CLR 01/M07 A3032 RMK AO2 SLP280 T00061072
  • 162153Z 08005KT 10SM CLR 02/M09 A3033 RMK AO2 SLP282 T00171089
  • 162053Z 07007KT 10SM CLR 02/M07 A3033 RMK AO2 SLP282 T00221067 56026

TAF KBTL
Valide du 17 à 00h jusqu'au 18 à 00h UTC


162340Z 1700/1724 09005KT P6SM SCT200
FM171800 17007KT P6SM OVC250
FM172000 18007KT P6SM OVC050
FM172300 15005KT 4SM HZ OVC015



MET'MAP, la Météo Aéronautique d'un coup d'oeil ! - Copyright ORBIFLY Décembre 2007 - Disclaimer

ORBIFLY MET'MAP TEAM :

Programmation & Développement : Alexandra Zaïnal
Conception & Développement : Baudouin d'Aumeries
Co-Programmation & Développement : Marc-Olivier Méhu
Soutien technique & logistique : Manuel Goepfert

Contact : metmap@orbifly.com




SOURCES & CREDITS :

   NOAA       Earth
Advisory